Time;durP1;ratioP1;P1;durP2;ratioP2;P2;SDS_P1;SDS_P2;PMS_P1;PMS_P2;Temp;Humidity;BMP_temperature;BMP_pressure;BME280_temperature;BME280_humidity;BME280_pressure;Samples;Min_cycle;Max_cycle;Signal;HPM_P1;HPM_P2
2021/10/08 00:00:24;;;;;;;53.90;24.50;;;;;;;9.05;100.00;103129.28;4946026;28;20059;-71
2021/10/08 00:02:52;;;;;;;55.38;25.20;;;;;;;9.07;100.00;103138.19;4945301;28;20050;-70
2021/10/08 00:05:21;;;;;;;53.88;23.02;;;;;;;9.03;100.00;103144.38;4950667;28;20580;-70
2021/10/08 00:07:49;;;;;;;54.47;25.40;;;;;;;9.01;100.00;103135.47;4944089;28;20063;-69
2021/10/08 00:10:17;;;;;;;53.22;23.98;;;;;;;9.00;100.00;103141.66;4951044;28;20046;-69
2021/10/08 00:12:45;;;;;;;55.78;25.63;;;;;;;8.96;100.00;103139.84;4942265;28;20317;-71
2021/10/08 00:15:13;;;;;;;59.40;25.52;;;;;;;8.93;100.00;103139.81;4950375;28;20463;-70
2021/10/08 00:17:41;;;;;;;52.40;23.15;;;;;;;8.88;100.00;103136.22;4951015;28;20404;-69
2021/10/08 00:20:10;;;;;;;54.15;25.00;;;;;;;8.86;100.00;103135.31;4940938;28;20065;-70
2021/10/08 00:22:41;;;;;;;62.03;25.85;;;;;;;8.86;100.00;103135.31;4949540;28;20524;-69
2021/10/08 00:25:09;;;;;;;60.72;26.27;;;;;;;8.90;100.00;103135.34;4943026;28;20651;-69
2021/10/08 00:27:37;;;;;;;66.90;26.73;;;;;;;8.84;100.00;103129.94;4949339;28;20819;-70
2021/10/08 00:30:06;;;;;;;81.10;26.80;;;;;;;8.82;100.00;103141.44;4946092;28;20055;-70
2021/10/08 00:32:34;;;;;;;63.88;25.65;;;;;;;8.84;100.00;103140.59;4944909;28;20073;-70
2021/10/08 00:35:01;;;;;;;66.72;25.35;;;;;;;8.84;100.00;103147.72;4950762;28;21551;-70
2021/10/08 00:37:29;;;;;;;60.22;25.25;;;;;;;8.88;100.00;103145.06;4944222;28;20109;-69
2021/10/08 00:39:58;;;;;;;61.78;25.67;;;;;;;8.85;100.00;103153.03;4948943;28;20145;-69
2021/10/08 00:42:28;;;;;;;60.55;25.35;;;;;;;8.82;100.00;103149.44;4948254;28;20136;-70
2021/10/08 00:44:55;;;;;;;66.07;25.88;;;;;;;8.82;100.00;103152.09;4945400;28;20051;-69
2021/10/08 00:47:23;;;;;;;61.95;25.80;;;;;;;8.81;100.00;103145.88;4951534;28;20145;-70
2021/10/08 00:49:51;;;;;;;58.20;23.75;;;;;;;8.85;100.00;103154.81;4941536;28;20050;-69
2021/10/08 00:52:19;;;;;;;77.53;28.83;;;;;;;8.77;100.00;103160.03;4945269;28;20414;-69
2021/10/08 00:54:47;;;;;;;68.03;26.13;;;;;;;8.75;100.00;103161.78;4945200;28;20138;-70
2021/10/08 00:57:18;;;;;;;59.40;24.42;;;;;;;8.71;100.00;103162.63;4950063;28;20149;-69
2021/10/08 01:00:10;;;;;;;62.40;25.08;;;;;;;8.71;100.00;103160.84;4949399;28;20065;-69
2021/10/08 01:02:38;;;;;;;61.03;25.42;;;;;;;8.69;100.00;103157.28;4948008;28;20577;-70
2021/10/08 01:05:06;;;;;;;59.58;24.77;;;;;;;8.65;100.00;103160.78;4948195;28;20483;-69
2021/10/08 01:07:34;;;;;;;66.15;25.27;;;;;;;8.60;100.00;103160.72;4944561;28;20070;-69
2021/10/08 01:10:02;;;;;;;59.78;25.42;;;;;;;8.59;100.00;103150.94;4948709;28;20090;-70
2021/10/08 01:12:32;;;;;;;54.83;22.50;;;;;;;8.55;100.00;103149.13;4942001;28;20072;-70
2021/10/08 01:15:00;;;;;;;55.72;25.17;;;;;;;8.58;100.00;103153.56;4943894;28;20066;-70
2021/10/08 01:17:28;;;;;;;59.05;24.92;;;;;;;8.62;100.00;103154.53;4947597;28;20043;-73
2021/10/08 01:20:02;;;;;;;60.65;24.30;;;;;;;8.59;100.00;103166.00;4943101;28;20483;-71
2021/10/08 01:22:30;;;;;;;56.50;23.90;;;;;;;8.58;100.00;103158.88;4942558;28;20080;-71
2021/10/08 01:24:58;;;;;;;47.50;21.60;;;;;;;8.53;100.00;103161.50;4942925;28;20133;-71
2021/10/08 01:27:26;;;;;;;49.85;23.90;;;;;;;8.47;100.00;103160.53;4946609;28;20062;-71
2021/10/08 01:29:55;;;;;;;52.55;23.02;;;;;;;8.47;100.00;103161.41;4944916;28;20152;-71
2021/10/08 01:32:25;;;;;;;53.38;22.63;;;;;;;8.47;100.00;103160.53;4943206;28;20216;-71
2021/10/08 01:34:53;;;;;;;80.15;26.75;;;;;;;8.41;100.00;103156.88;4948890;28;20059;-71
2021/10/08 01:37:22;;;;;;;90.13;24.80;;;;;;;8.32;100.00;103154.06;4943513;28;20700;-72
2021/10/08 01:39:50;;;;;;;54.75;22.42;;;;;;;8.38;100.00;103161.28;4945358;28;20069;-71
2021/10/08 01:42:18;;;;;;;56.70;23.25;;;;;;;8.31;100.00;103160.28;4946846;28;20055;-71
2021/10/08 01:44:46;;;;;;;57.50;23.92;;;;;;;8.27;100.00;103161.09;4944729;28;20186;-71
2021/10/08 01:47:14;;;;;;;60.75;22.88;;;;;;;8.28;100.00;103164.69;4948925;28;20057;-71
2021/10/08 01:49:42;;;;;;;65.82;23.98;;;;;;;8.33;100.00;103166.53;4944881;28;20822;-72
2021/10/08 01:52:10;;;;;;;57.22;24.33;;;;;;;8.23;100.00;103170.81;4941783;28;20059;-71
2021/10/08 01:55:04;;;;;;;63.60;25.17;;;;;;;8.17;100.00;103167.16;4945025;28;20058;-70
2021/10/08 01:57:32;;;;;;;63.53;25.33;;;;;;;8.19;100.00;103162.78;4944811;28;20065;-70
2021/10/08 02:00:00;;;;;;;61.03;25.25;;;;;;;8.16;100.00;103166.28;4947900;28;20349;-71
2021/10/08 02:02:28;;;;;;;59.63;24.42;;;;;;;8.17;100.00;103160.09;4950514;28;20051;-70
2021/10/08 02:04:56;;;;;;;60.78;26.83;;;;;;;8.14;100.00;103170.69;4953127;28;20154;-70
2021/10/08 02:07:25;;;;;;;54.58;23.67;;;;;;;8.18;100.00;103168.94;4948875;28;20053;-71
2021/10/08 02:09:53;;;;;;;50.95;21.52;;;;;;;8.12;100.00;103168.84;4950676;28;20836;-71
2021/10/08 02:12:22;;;;;;;76.75;21.42;;;;;;;8.07;100.00;103168.81;4948371;28;20404;-70
2021/10/08 02:15:14;;;;;;;148.97;30.70;;;;;;;8.06;100.00;103169.66;4949832;28;20053;-71
2021/10/08 02:18:06;;;;;;;58.42;22.38;;;;;;;8.06;100.00;103166.13;4951093;28;20805;-70
2021/10/08 02:20:34;;;;;;;97.30;27.70;;;;;;;8.00;100.00;103164.22;4951902;28;20068;-70
2021/10/08 02:23:01;;;;;;;51.42;21.50;;;;;;;7.99;100.00;103165.13;4952075;28;20355;-70
2021/10/08 02:25:29;;;;;;;90.93;25.67;;;;;;;7.91;100.00;103164.09;4946251;28;20189;-70
2021/10/08 02:27:58;;;;;;;70.38;23.73;;;;;;;7.93;100.00;103163.25;4944098;28;20141;-70
2021/10/08 02:30:26;;;;;;;83.40;24.60;;;;;;;7.94;100.00;103156.19;4950208;28;20055;-70
2021/10/08 02:32:54;;;;;;;65.43;22.73;;;;;;;7.89;100.00;103164.06;4948799;28;20136;-70
2021/10/08 02:35:22;;;;;;;61.47;23.75;;;;;;;7.94;100.00;103165.03;4952736;28;20050;-69
2021/10/08 02:37:50;;;;;;;52.72;21.75;;;;;;;7.92;100.00;103168.56;4949641;28;20146;-69
2021/10/08 02:40:18;;;;;;;64.15;23.75;;;;;;;7.89;100.00;103165.84;4950505;28;20054;-69
2021/10/08 02:42:46;;;;;;;51.85;22.15;;;;;;;7.88;100.00;103169.38;4950241;28;20070;-70
2021/10/08 02:45:16;;;;;;;50.20;23.17;;;;;;;7.92;100.00;103168.56;4947405;28;20047;-70
2021/10/08 02:47:44;;;;;;;58.95;22.48;;;;;;;7.90;100.00;103171.19;4949716;28;20109;-69
2021/10/08 02:50:12;;;;;;;73.53;25.10;;;;;;;7.95;100.00;103172.16;4948255;28;20051;-69
2021/10/08 02:52:40;;;;;;;61.97;24.50;;;;;;;7.96;100.00;103171.28;4944885;28;20119;-71
2021/10/08 02:55:09;;;;;;;49.35;23.27;;;;;;;7.96;100.00;103173.94;4949601;28;20109;-69
2021/10/08 02:57:38;;;;;;;102.57;26.77;;;;;;;7.92;100.00;103173.88;4945223;28;20105;-69
2021/10/08 03:00:08;;;;;;;50.67;22.60;;;;;;;7.94;100.00;103174.78;4945317;28;20691;-69
2021/10/08 03:02:37;;;;;;;57.55;22.20;;;;;;;7.93;100.00;103173.00;4942770;28;20074;-69
2021/10/08 03:05:06;;;;;;;61.30;24.40;;;;;;;7.94;100.00;103180.09;4954089;28;20183;-69
2021/10/08 03:07:34;;;;;;;71.20;24.98;;;;;;;7.90;100.00;103178.25;4942728;28;20066;-69
2021/10/08 03:10:03;;;;;;;55.58;22.67;;;;;;;7.87;100.00;103181.78;4952473;28;20138;-70
2021/10/08 03:12:31;;;;;;;73.80;24.77;;;;;;;7.84;100.00;103187.91;4943703;28;20053;-69
2021/10/08 03:14:59;;;;;;;45.35;20.50;;;;;;;7.85;100.00;103180.84;4949551;28;20571;-70
2021/10/08 03:17:27;;;;;;;53.90;22.98;;;;;;;7.83;100.00;103185.22;4952735;28;20047;-71
2021/10/08 03:19:56;;;;;;;48.25;21.92;;;;;;;7.85;100.00;103183.50;4944138;28;20055;-69
2021/10/08 03:22:24;;;;;;;50.35;22.45;;;;;;;7.82;100.00;103183.47;4950849;28;20129;-70
2021/10/08 03:24:52;;;;;;;51.88;20.48;;;;;;;7.86;100.00;103187.94;4947751;28;20086;-72
2021/10/08 03:27:20;;;;;;;56.83;22.13;;;;;;;7.87;100.00;103181.78;4944563;28;20086;-69
2021/10/08 03:29:48;;;;;;;64.63;22.05;;;;;;;7.89;100.00;103185.34;4952990;28;20403;-69
2021/10/08 03:32:16;;;;;;;65.93;22.75;;;;;;;7.87;100.00;103187.09;4948248;28;21525;-70
2021/10/08 03:34:44;;;;;;;68.88;23.60;;;;;;;7.84;100.00;103179.94;4948887;28;20134;-71
2021/10/08 03:37:15;;;;;;;49.15;21.75;;;;;;;7.83;100.00;103188.81;4948494;28;20054;-69
2021/10/08 03:39:47;;;;;;;95.38;24.27;;;;;;;7.77;100.00;103188.69;4945495;28;20062;-69
2021/10/08 03:42:17;;;;;;;82.50;23.45;;;;;;;7.71;100.00;103177.94;4949243;28;20055;-69
2021/10/08 03:44:52;;;;;;;98.38;23.75;;;;;;;7.72;100.00;103185.06;4949643;28;20058;-69
2021/10/08 03:47:23;;;;;;;82.43;22.27;;;;;;;7.69;100.00;103182.34;4949851;28;20059;-70
2021/10/08 03:49:51;;;;;;;61.58;20.08;;;;;;;7.65;100.00;103186.72;4945744;28;20440;-69
2021/10/08 03:52:20;;;;;;;119.80;25.92;;;;;;;7.58;100.00;103186.59;4944932;28;20130;-70
2021/10/08 03:54:48;;;;;;;67.15;19.10;;;;;;;7.55;100.00;103179.44;4950542;28;20792;-72
2021/10/08 03:57:16;;;;;;;68.30;21.45;;;;;;;7.52;100.00;103168.75;4948193;28;20391;-70
2021/10/08 03:59:44;;;;;;;85.20;22.67;;;;;;;7.54;100.00;103180.31;4951741;28;20065;-70
2021/10/08 04:02:12;;;;;;;46.42;19.10;;;;;;;7.51;100.00;103182.94;4943933;28;20054;-70
2021/10/08 04:04:40;;;;;;;66.57;21.50;;;;;;;7.48;100.00;103183.75;4949403;28;20589;-70
2021/10/08 04:07:07;;;;;;;128.25;23.85;;;;;;;7.43;100.00;103182.78;4947338;28;20288;-70
2021/10/08 04:09:36;;;;;;;39.30;17.95;;;;;;;7.48;100.00;103181.09;4949089;28;20095;-70
2021/10/08 04:12:04;;;;;;;51.70;21.42;;;;;;;7.53;100.00;103188.28;4942428;28;20129;-70
2021/10/08 04:14:32;;;;;;;91.28;22.45;;;;;;;7.47;100.00;103189.94;4947199;28;20106;-70
2021/10/08 04:17:00;;;;;;;75.45;21.65;;;;;;;7.51;100.00;103182.00;4949853;28;20126;-70
2021/10/08 04:19:27;;;;;;;83.97;21.15;;;;;;;7.39;100.00;103183.59;4948883;28;20051;-70
2021/10/08 04:21:55;;;;;;;47.85;18.73;;;;;;;7.43;100.00;103185.44;4945253;28;20079;-70
2021/10/08 04:24:23;;;;;;;71.93;20.70;;;;;;;7.39;100.00;103188.91;4948003;28;20403;-70
2021/10/08 04:26:52;;;;;;;73.63;19.42;;;;;;;7.38;100.00;103195.06;4946197;28;20055;-70
2021/10/08 04:29:19;;;;;;;38.78;17.58;;;;;;;7.34;100.00;103189.66;4950595;28;20142;-70
2021/10/08 04:31:48;;;;;;;47.80;18.15;;;;;;;7.35;100.00;103186.16;4948242;28;20055;-69
2021/10/08 04:34:15;;;;;;;59.78;20.08;;;;;;;7.35;100.00;103192.34;4944689;28;20069;-69
2021/10/08 04:36:43;;;;;;;46.25;19.90;;;;;;;7.37;100.00;103187.06;4948831;28;20082;-69
2021/10/08 04:39:11;;;;;;;90.93;21.20;;;;;;;7.38;100.00;103187.09;4948883;28;20051;-69
2021/10/08 04:41:41;;;;;;;41.05;15.63;;;;;;;7.40;100.00;103195.09;4947356;28;20053;-69
2021/10/08 04:44:10;;;;;;;41.45;19.05;;;;;;;7.45;100.00;103198.75;4946708;28;20057;-69
2021/10/08 04:46:38;;;;;;;61.47;20.63;;;;;;;7.38;100.00;103196.84;4946500;28;20389;-69
2021/10/08 04:49:05;;;;;;;39.13;17.33;;;;;;;7.37;100.00;103197.69;4946084;28;20055;-69
2021/10/08 04:51:34;;;;;;;64.05;19.80;;;;;;;7.27;100.00;103194.88;4945504;28;20145;-70
2021/10/08 04:54:02;;;;;;;38.97;16.85;;;;;;;7.35;100.00;103192.34;4950482;28;20147;-70
2021/10/08 04:56:32;;;;;;;46.22;18.02;;;;;;;7.34;100.00;103195.91;4940253;28;20055;-70
2021/10/08 04:59:02;;;;;;;39.65;17.63;;;;;;;7.37;100.00;103200.34;4946317;28;20325;-70
2021/10/08 05:01:31;;;;;;;60.33;20.08;;;;;;;7.31;100.00;103198.50;4948687;28;20516;-71
2021/10/08 05:03:59;;;;;;;74.47;20.05;;;;;;;7.30;100.00;103196.69;4942026;28;20054;-71
2021/10/08 05:06:27;;;;;;;49.17;17.80;;;;;;;7.26;100.00;103195.72;4941928;28;20142;-71
2021/10/08 05:08:55;;;;;;;38.08;18.08;;;;;;;7.25;100.00;103203.66;4946059;28;20147;-71
2021/10/08 05:11:23;;;;;;;53.38;18.33;;;;;;;7.26;100.00;103198.38;4948603;28;20054;-71
2021/10/08 05:13:51;;;;;;;56.03;18.73;;;;;;;7.26;100.00;103210.78;4948181;28;20145;-72
2021/10/08 05:16:19;;;;;;;49.35;18.02;;;;;;;7.23;100.00;103202.75;4942753;28;20083;-72
2021/10/08 05:18:48;;;;;;;47.85;19.58;;;;;;;7.10;100.00;103205.16;4947447;28;20275;-73
2021/10/08 05:21:16;;;;;;;52.83;17.60;;;;;;;7.09;100.00;103214.00;4946821;28;20137;-72
2021/10/08 05:23:43;;;;;;;38.97;17.42;;;;;;;7.08;100.00;103213.97;4950153;28;20057;-72
2021/10/08 05:26:12;;;;;;;50.50;17.10;;;;;;;7.02;100.00;103211.19;4939905;28;20049;-73
2021/10/08 05:28:40;;;;;;;31.10;14.23;;;;;;;7.02;100.00;103211.19;4950913;28;20047;-73
2021/10/08 05:31:08;;;;;;;67.40;18.55;;;;;;;6.98;100.00;103207.59;4943403;28;20051;-73
2021/10/08 05:33:36;;;;;;;39.67;16.65;;;;;;;6.95;100.00;103210.16;4943414;28;20088;-74
2021/10/08 05:36:05;;;;;;;39.72;14.77;;;;;;;7.01;100.00;103215.59;4946688;28;20050;-73
2021/10/08 05:38:32;;;;;;;44.30;16.00;;;;;;;6.99;100.00;103212.00;4938799;28;20955;-73
2021/10/08 05:41:01;;;;;;;32.80;14.85;;;;;;;6.98;100.00;103218.22;4949262;28;20158;-71
2021/10/08 05:43:29;;;;;;;40.50;17.33;;;;;;;7.03;100.00;103212.97;4946572;28;20129;-73
2021/10/08 05:45:57;;;;;;;36.95;16.42;;;;;;;7.03;100.00;103212.97;4943695;28;20055;-73
2021/10/08 05:48:25;;;;;;;130.38;21.88;;;;;;;6.93;100.00;103222.53;4950345;28;20050;-73
2021/10/08 05:50:53;;;;;;;29.00;15.18;;;;;;;7.02;100.00;103220.03;4940974;28;20468;-73
2021/10/08 05:53:22;;;;;;;42.35;15.30;;;;;;;6.97;100.00;103215.50;4944682;28;20065;-73
2021/10/08 05:55:50;;;;;;;39.55;15.40;;;;;;;7.08;100.00;103220.19;4944548;28;20138;-72
2021/10/08 05:58:17;;;;;;;42.33;16.27;;;;;;;7.07;100.00;103228.13;4943205;28;20513;-72
2021/10/08 06:00:45;;;;;;;40.00;15.77;;;;;;;7.09;100.00;103226.38;4942504;28;20098;-71
2021/10/08 06:03:13;;;;;;;39.97;14.93;;;;;;;7.08;100.00;103221.91;4948837;28;20789;-71
2021/10/08 06:05:41;;;;;;;37.63;15.43;;;;;;;7.02;100.00;103221.81;4949193;28;20183;-71
2021/10/08 06:08:10;;;;;;;52.17;14.93;;;;;;;6.96;100.00;103224.31;4943990;28;20065;-71
2021/10/08 06:10:40;;;;;;;41.45;15.10;;;;;;;6.94;100.00;103221.63;4939258;28;20269;-70
2021/10/08 06:13:08;;;;;;;29.10;14.63;;;;;;;7.01;100.00;103222.66;4940335;28;20849;-70
2021/10/08 06:15:36;;;;;;;31.20;14.43;;;;;;;7.03;100.00;103231.56;4946054;28;20050;-70
2021/10/08 06:18:04;;;;;;;33.00;15.18;;;;;;;7.00;100.00;103229.75;4938798;28;20110;-70
2021/10/08 06:20:33;;;;;;;38.13;14.82;;;;;;;6.91;100.00;103232.19;4939521;28;20129;-70
2021/10/08 06:23:01;;;;;;;28.98;13.13;;;;;;;6.98;100.00;103235.88;4943298;28;20141;-70
2021/10/08 06:25:29;;;;;;;87.78;16.98;;;;;;;6.90;100.00;103236.59;4945006;28;20122;-71
2021/10/08 06:27:58;;;;;;;33.58;15.45;;;;;;;6.92;100.00;103237.53;4941516;28;20093;-71
2021/10/08 06:30:26;;;;;;;33.72;15.52;;;;;;;7.00;100.00;103243.03;4951109;28;20095;-71
2021/10/08 06:32:55;;;;;;;45.72;14.57;;;;;;;6.96;100.00;103248.22;4938997;28;20054;-73
2021/10/08 06:35:22;;;;;;;36.03;15.40;;;;;;;6.92;100.00;103245.50;4944382;28;20050;-73
2021/10/08 06:37:50;;;;;;;34.05;14.40;;;;;;;6.92;100.00;103252.56;4946571;28;20060;-73
2021/10/08 06:40:18;;;;;;;40.20;14.63;;;;;;;6.92;100.00;103247.25;4939593;28;20051;-73
2021/10/08 06:42:47;;;;;;;40.90;14.95;;;;;;;6.90;100.00;103247.22;4946399;28;20149;-72
2021/10/08 06:45:16;;;;;;;126.40;19.83;;;;;;;6.93;100.00;103249.06;4942377;28;20145;-72
2021/10/08 06:47:45;;;;;;;34.17;14.55;;;;;;;6.88;100.00;103246.31;4951002;28;20047;-73
2021/10/08 06:50:12;;;;;;;50.63;14.88;;;;;;;6.89;100.00;103253.38;4950032;28;20505;-74
2021/10/08 06:52:40;;;;;;;32.80;13.90;;;;;;;6.88;100.00;103259.56;4940853;28;20050;-72
2021/10/08 06:55:08;;;;;;;32.35;13.15;;;;;;;6.92;100.00;103269.38;4948967;28;20301;-72
2021/10/08 06:57:36;;;;;;;78.50;15.65;;;;;;;6.88;100.00;103266.66;4951038;28;20051;-72
2021/10/08 07:00:04;;;;;;;54.25;15.75;;;;;;;6.87;100.00;103264.84;4944461;28;20299;-72
2021/10/08 07:02:34;;;;;;;45.47;14.50;;;;;;;6.89;100.00;103274.63;4948788;28;20138;-72
2021/10/08 07:05:01;;;;;;;47.90;14.27;;;;;;;6.85;100.00;103277.19;4948721;28;20059;-72
2021/10/08 07:07:29;;;;;;;39.97;14.10;;;;;;;6.90;100.00;103275.53;4950224;28;20061;-72
2021/10/08 07:09:57;;;;;;;31.05;14.35;;;;;;;7.02;100.00;103274.91;4949017;28;20064;-72
2021/10/08 07:12:27;;;;;;;28.15;14.93;;;;;;;7.01;100.00;103275.75;4949457;28;20209;-72
2021/10/08 07:14:54;;;;;;;57.53;16.65;;;;;;;6.95;100.00;103273.88;4945909;28;20063;-72
2021/10/08 07:17:47;;;;;;;41.70;14.45;;;;;;;7.03;100.00;103274.03;4948369;28;20045;-71
2021/10/08 07:20:16;;;;;;;28.60;13.57;;;;;;;7.08;100.00;103269.72;4947362;28;20316;-71
2021/10/08 07:23:08;;;;;;;68.70;15.45;;;;;;;6.98;100.00;103273.03;4947626;28;20296;-72
2021/10/08 07:25:36;;;;;;;37.63;13.90;;;;;;;7.10;100.00;103284.81;4950309;28;20779;-72
2021/10/08 07:28:04;;;;;;;62.97;16.45;;;;;;;7.07;100.00;103281.22;4945480;28;20047;-71
2021/10/08 07:30:32;;;;;;;39.22;14.95;;;;;;;7.10;100.00;103286.59;4949443;28;20481;-71
2021/10/08 07:33:01;;;;;;;41.95;14.60;;;;;;;7.21;100.00;103286.81;4944001;28;20142;-72
2021/10/08 07:35:29;;;;;;;36.35;16.33;;;;;;;7.23;100.00;103279.75;4946681;28;20059;-72
2021/10/08 07:37:57;;;;;;;49.22;16.52;;;;;;;7.23;100.00;103291.28;4948536;28;20117;-72
2021/10/08 07:40:25;;;;;;;71.82;17.77;;;;;;;7.21;100.00;103287.69;4946117;28;20057;-72
2021/10/08 07:42:53;;;;;;;54.47;15.75;;;;;;;7.17;100.00;103291.16;4950808;28;20065;-72
2021/10/08 07:45:21;;;;;;;32.95;14.30;;;;;;;7.20;100.00;103296.56;4945239;28;20269;-73
2021/10/08 07:47:49;;;;;;;38.17;14.43;;;;;;;7.20;100.00;103291.25;4948786;28;20130;-73
2021/10/08 07:50:18;;;;;;;29.60;14.15;;;;;;;7.34;100.00;103293.25;4949173;28;20077;-72
2021/10/08 07:52:46;;;;;;;47.75;14.82;;;;;;;7.29;100.00;103296.72;4943526;28;20528;-72
2021/10/08 07:55:14;;;;;;;48.08;15.10;;;;;;;7.51;100.00;103296.25;4950424;28;20101;-72
2021/10/08 07:58:06;;;;;;;27.95;14.32;;;;;;;7.56;100.00;103284.88;4947878;28;20102;-72
2021/10/08 08:01:00;;;;;;;55.38;18.33;;;;;;;7.61;100.00;103287.59;4950092;28;20065;-72
2021/10/08 08:03:28;;;;;;;32.25;14.88;;;;;;;7.74;100.00;103302.03;4944457;28;20058;-72
2021/10/08 08:06:21;;;;;;;50.55;17.40;;;;;;;7.60;100.00;103296.44;4949569;28;21874;-71
2021/10/08 08:08:49;;;;;;;40.53;14.50;;;;;;;7.74;100.00;103296.72;4947251;28;20051;-72
2021/10/08 08:11:17;;;;;;;37.45;14.60;;;;;;;7.71;100.00;103294.88;4940568;28;20222;-71
2021/10/08 08:13:44;;;;;;;44.00;15.80;;;;;;;7.83;100.00;103304.84;4944490;28;20050;-71
2021/10/08 08:16:12;;;;;;;51.60;16.85;;;;;;;7.86;100.00;103304.91;4946706;28;20061;-71
2021/10/08 08:18:41;;;;;;;32.88;15.93;;;;;;;8.03;100.00;103302.56;4946760;28;20058;-71
2021/10/08 08:21:09;;;;;;;54.95;16.90;;;;;;;8.04;100.00;103301.69;4948845;28;20059;-71
2021/10/08 08:23:38;;;;;;;56.35;18.83;;;;;;;8.04;100.00;103301.69;4947904;28;20501;-71
2021/10/08 08:26:05;;;;;;;40.90;14.80;;;;;;;8.03;100.00;103302.56;4949363;28;20054;-71
2021/10/08 08:28:33;;;;;;;44.42;16.30;;;;;;;8.09;100.00;103310.66;4943331;28;20064;-71
2021/10/08 08:31:01;;;;;;;36.20;16.02;;;;;;;8.23;100.00;103311.78;4947904;28;20536;-71
2021/10/08 08:33:29;;;;;;;37.08;16.83;;;;;;;8.21;100.00;103309.97;4948205;28;20059;-71
2021/10/08 08:35:57;;;;;;;39.92;16.85;;;;;;;8.21;100.00;103308.19;4949943;28;20210;-70
2021/10/08 08:38:25;;;;;;;39.25;17.25;;;;;;;8.32;100.00;103312.81;4945497;28;20059;-70
2021/10/08 08:40:54;;;;;;;42.75;17.77;;;;;;;8.32;100.00;103305.72;4943238;28;20050;-70
2021/10/08 08:43:22;;;;;;;42.92;17.30;;;;;;;8.52;100.00;103313.16;4945994;28;20053;-70
2021/10/08 08:45:49;;;;;;;65.15;19.50;;;;;;;8.52;100.00;103314.06;4945618;28;20058;-70
2021/10/08 08:48:18;;;;;;;42.33;18.20;;;;;;;8.55;100.00;103305.25;4952091;28;20058;-70
2021/10/08 08:50:47;;;;;;;37.92;18.25;;;;;;;8.45;100.00;103306.84;4944813;28;20071;-70
2021/10/08 08:53:18;;;;;;;47.83;17.63;;;;;;;8.63;100.00;103306.22;4938801;28;20485;-70
2021/10/08 08:55:46;;;;;;;49.33;20.08;;;;;;;8.71;100.00;103309.03;4945895;28;20053;-70
2021/10/08 08:58:19;;;;;;;46.80;18.65;;;;;;;8.69;100.00;103314.31;4945837;28;20583;-70
2021/10/08 09:00:56;;;;;;;46.55;20.33;;;;;;;8.78;100.00;103310.91;4944724;28;20059;-71
2021/10/08 09:03:24;;;;;;;44.03;20.15;;;;;;;9.07;100.00;103318.41;4948670;28;20057;-70
2021/10/08 09:05:52;;;;;;;58.17;21.33;;;;;;;9.03;100.00;103312.16;4947090;28;20055;-70
2021/10/08 09:08:19;;;;;;;49.78;20.90;;;;;;;9.20;100.00;103311.50;4946951;28;20055;-70
2021/10/08 09:10:48;;;;;;;48.67;20.67;;;;;;;9.39;100.00;103305.50;4941443;28;20137;-70
2021/10/08 09:13:18;;;;;;;58.83;23.40;;;;;;;9.28;100.00;103305.38;4941601;28;20487;-68
2021/10/08 09:15:49;;;;;;;45.58;20.73;;;;;;;9.43;100.00;103307.34;4942071;28;20051;-68
2021/10/08 09:18:20;;;;;;;52.08;20.98;;;;;;;9.44;100.00;103305.56;4945214;28;20507;-68
2021/10/08 09:21:15;;;;;;;50.10;23.00;;;;;;;9.50;100.00;103301.22;4947892;28;20460;-68
2021/10/08 09:23:46;;;;;;;49.05;21.77;;;;;;;9.58;100.00;103301.28;4940185;28;20101;-70
2021/10/08 09:26:17;;;;;;;54.30;21.88;;;;;;;9.66;100.00;103301.38;4944587;28;20058;-68
2021/10/08 09:28:54;;;;;;;57.30;23.40;;;;;;;9.73;100.00;103300.56;4944164;28;20054;-68
2021/10/08 09:31:26;;;;;;;58.47;22.77;;;;;;;9.98;100.00;103306.16;4941206;28;20249;-68
2021/10/08 09:34:10;;;;;;;56.53;25.13;;;;;;;10.12;100.00;103303.63;4944721;28;20051;-68
2021/10/08 09:36:42;;;;;;;61.05;25.30;;;;;;;10.22;100.00;103294.81;4947054;28;20158;-70
2021/10/08 09:39:17;;;;;;;64.28;26.52;;;;;;;10.14;100.00;103292.06;4945406;28;20146;-68
2021/10/08 09:41:49;;;;;;;57.35;25.02;;;;;;;10.31;100.00;103296.66;4943069;28;20050;-68
2021/10/08 09:44:18;;;;;;;62.90;27.38;;;;;;;10.37;100.00;103291.38;4942959;28;20286;-68
2021/10/08 09:46:47;;;;;;;60.95;26.75;;;;;;;10.39;100.00;103300.31;4944809;28;20047;-68
2021/10/08 09:49:21;;;;;;;67.97;27.63;;;;;;;10.71;100.00;103292.53;4941241;28;20498;-68
2021/10/08 09:51:49;;;;;;;67.43;27.73;;;;;;;10.67;100.00;103301.41;4942433;28;20533;-68
2021/10/08 09:54:17;;;;;;;70.45;29.33;;;;;;;10.73;100.00;103305.91;4940941;28;20057;-69
2021/10/08 09:56:59;;;;;;;75.13;31.57;;;;;;;10.85;100.00;103297.97;4946455;28;20081;-68
2021/10/08 09:59:40;;;;;;;74.25;28.73;;;;;;;11.01;100.00;103298.94;4942277;28;20387;-68
2021/10/08 10:02:08;;;;;;;67.40;30.67;;;;;;;11.01;100.00;103297.13;4945670;28;20242;-69
2021/10/08 10:04:47;;;;;;;68.18;28.55;;;;;;;11.16;100.00;103304.34;4944589;28;20082;-69
2021/10/08 10:07:16;;;;;;;70.63;29.23;;;;;;;11.23;100.00;103296.38;4944057;28;20142;-68
2021/10/08 10:09:45;;;;;;;83.10;32.45;;;;;;;11.09;100.00;103301.66;4943264;28;20069;-69
2021/10/08 10:12:35;;;;;;;74.47;31.45;;;;;;;11.18;100.00;103301.69;4945274;28;20177;-68
2021/10/08 10:15:06;;;;;;;80.05;32.22;;;;;;;11.15;100.00;103296.31;4948818;28;20043;-68
2021/10/08 10:17:34;;;;;;;78.32;31.52;;;;;;;11.31;100.00;103297.31;4944049;28;20502;-68
2021/10/08 10:20:03;;;;;;;87.00;33.70;;;;;;;11.25;100.00;103303.50;4942518;28;20046;-68
2021/10/08 10:22:34;;;;;;;84.00;35.83;;;;;;;11.13;100.00;103301.66;4947892;28;20082;-68
2021/10/08 10:25:02;;;;;;;85.15;33.28;;;;;;;11.28;100.00;103303.50;4948942;28;20539;-68
2021/10/08 10:27:54;;;;;;;78.50;32.35;;;;;;;11.54;100.00;103302.72;4950602;28;20794;-68
2021/10/08 10:30:23;;;;;;;77.85;33.80;;;;;;;11.56;100.00;103300.91;4949608;28;20051;-69
2021/10/08 10:32:51;;;;;;;88.75;34.40;;;;;;;11.56;100.00;103303.59;4949133;28;20081;-68
2021/10/08 10:35:56;;;;;;;88.60;36.53;;;;;;;11.43;100.00;103300.00;4943609;28;20093;-68
2021/10/08 10:38:30;;;;;;;83.22;35.17;;;;;;;11.59;100.00;103299.19;4947297;28;20051;-68
2021/10/08 10:41:26;;;;;;;91.22;36.78;;;;;;;11.80;100.00;103299.19;4949749;28;20055;-68
2021/10/08 10:44:10;;;;;;;82.57;34.58;;;;;;;12.09;100.00;103304.66;4943695;28;20105;-69
2021/10/08 10:46:44;;;;;;;95.22;37.25;;;;;;;12.20;100.00;103304.66;4943148;28;20251;-69
2021/10/08 10:49:40;;;;;;;81.30;34.20;;;;;;;11.99;100.00;103306.41;4949947;28;20139;-69
2021/10/08 10:52:27;;;;;;;83.28;36.17;;;;;;;11.95;100.00;103304.59;4941425;28;20137;-69
2021/10/08 10:55:08;;;;;;;77.95;33.17;;;;;;;11.77;100.00;103301.00;4947901;28;20532;-69
2021/10/08 10:58:10;;;;;;;83.75;35.20;;;;;;;11.90;100.00;103291.22;4944781;28;20058;-69
2021/10/08 11:00:45;;;;;;;88.15;36.83;;;;;;;11.84;100.00;103299.22;4947709;28;20054;-69
2021/10/08 11:03:18;;;;;;;87.93;37.08;;;;;;;11.93;100.00;103293.91;4949829;28;20066;-69
2021/10/08 11:06:06;;;;;;;81.80;36.25;;;;;;;12.04;100.00;103301.09;4947830;28;20480;-69
2021/10/08 11:08:34;;;;;;;86.38;36.90;;;;;;;12.08;100.00;103293.03;4943133;28;20059;-69
2021/10/08 11:11:19;;;;;;;83.32;37.15;;;;;;;12.28;100.00;103297.50;4944203;28;20051;-69
2021/10/08 11:13:49;;;;;;;85.40;36.50;;;;;;;12.61;98.65;103284.97;4945007;28;20454;-69
2021/10/08 11:16:30;;;;;;;81.88;35.92;;;;;;;12.36;97.68;103292.16;4946856;28;20061;-68
2021/10/08 11:18:59;;;;;;;75.45;34.88;;;;;;;12.52;98.24;103283.22;4946258;28;20089;-69
2021/10/08 11:21:49;;;;;;;78.05;35.35;;;;;;;12.75;98.38;103276.91;4951204;28;20059;-69